KHQG

Details ICAO KHQG
Name HUGOTON MUNI
Region United States
Timezone America/Chicago (UTC-6.0)
Plans Departing 1
Arriving 1
Stats Elevation 3,133 ft / 955 m (AMSL)
Location 37.163664° -101.370331°
Runways 2
Magnetic Variation 6.071° E
Sunrise 2017-12-12 13:51:29 UTC / 2017-12-12 07:51:29 Local
Sunset 2017-12-12 23:30:04 UTC / 2017-12-12 17:30:04 Local
Advertisement - Login to hide

Runways

ID Width Length Bearing (true) Bearing (mag) Surface Threshold Offset Overrun Length
02 75 ft / 23 m 5,008 ft / 1,526 m 24.52° 18.45° Concrete 0 ft / 0 m 0 ft / 0 m
13 35 ft / 11 m 2,626 ft / 801 m 135.27° 129.20° Asphalt 0 ft / 0 m 0 ft / 0 m
20 75 ft / 23 m 5,008 ft / 1,526 m 204.52° 198.45° Concrete 0 ft / 0 m 0 ft / 0 m
31 35 ft / 11 m 2,626 ft / 801 m 315.27° 309.20° Asphalt 200 ft / 61 m 0 ft / 0 m

Map

Weather


0- 5 10 15 20 25 30 35+ Temperature / ° C

Clouds and Precipitation
Forecast for 2017-12-12 06:00 UTC. Updated 2 hours ago

Ground ~20,000 ft ~40,000 ft Winds

METAR

KHQG 120655Z AUTO 31006KT 10SM CLR M03/M12 A3046 RMK AO2 T10331122

TAF

Not found

Frequencies

Recorded 118.60 MHz AWOS 3
Unicom 122.80 MHz CTAF/UNICOM
Warning: Do not use this data for real-world aviation or navigation. No guarantee of current accuracy is given.